Monastir-Skanes, Tunisia
Current Conditions -  °F | °C
As of 4:00 AM on Tuesday 27 Jan 2015 (Local Time) from DTMB Reporting Station
Broken Clouds Broken Clouds  
Wind Chill: 50°   Ceiling: 2600
Heat Index: 50°   Visibility: 6mi
Dew Point: 45°   Wind: 15mph
Humidity: 82%   Direction: 290°WNW
Pressure: 30.03"   Gusts: NA
Location:  35.67°N, 10.75°E
Report Text: DTMB 270300Z 29013KT 9999 SCT016 BKN026 10/07 Q1017 NOSIG
Loading
Personal Weather Stations






























Interactive Weather Map New forecast layout! Learn more

10-Day Weather Forecast

Advertisements
Track Severe Weather on mobile